KCDC

Cedar City Regional Airport

Cedar City, Utah, USA
METAR KCDC 232253Z AUTO 00000KT 10SM CLR 03/M06 A3026 RMK AO2 SLP280 T00331061
Observed Flight Rules
Jan-23 @ 22:53 UTC (34 minutes ago) Visual Flight Rules
Wind Visibility Clouds
Calm 10 miles
  • Clear skies
Temperatures Readings
Current 3°C / 37°F
Dewpoint -6°C / 21°F
Humidity 52%
Altimeter 30.26" Hg
Pressure 1028 hPa
Elevation 1714
METAR KCDC 232253Z AUTO 00000KT 10SM CLR 03/M06 A3026 RMK AO2 SLP280 T00331061
Observed Flight Rules
Jan-23 @ 22:53 UTC
(34 minutes ago)
VFR
Wind Visibility
Calm 10 miles
Clouds
  • Clear skies
Temperature Dewpoint
3°C / 37°F -6°C / 21°F
Humidity Altimeter Pressure
52% 30.26" Hg 1028 hPa